createdAt,value
2018-04-16T00:01:51.681Z,4.93
2018-04-16T00:04:19.676Z,4.67
2018-04-16T00:06:47.207Z,11.33
2018-04-16T00:09:14.778Z,7.50
2018-04-16T00:11:42.288Z,8.83
2018-04-16T00:14:09.873Z,8.50
2018-04-16T00:16:38.144Z,15.00
2018-04-16T00:19:06.071Z,7.13
2018-04-16T00:21:33.647Z,5.83
2018-04-16T00:24:01.277Z,5.20
2018-04-16T00:26:29.558Z,7.53
2018-04-16T00:28:57.168Z,6.33
2018-04-16T00:31:30.320Z,8.97
2018-04-16T00:34:04.012Z,5.10
2018-04-16T00:36:37.278Z,9.70
2018-04-16T00:39:10.492Z,7.67
2018-04-16T00:41:43.743Z,12.13
2018-04-16T00:44:17.740Z,6.47
2018-04-16T00:46:51.006Z,6.50
2018-04-16T00:49:25.041Z,11.43
2018-04-16T00:51:58.255Z,6.60
2018-04-16T00:54:31.390Z,6.20
2018-04-16T00:57:05.467Z,13.07
2018-04-16T00:59:39.480Z,9.97
2018-04-16T01:02:13.572Z,6.63
2018-04-16T01:04:46.880Z,7.43
2018-04-16T01:07:20.206Z,18.47
2018-04-16T01:09:54.345Z,7.50
2018-04-16T01:15:42.877Z,23.03
2018-04-16T01:18:16.252Z,17.53
2018-04-16T01:20:50.265Z,7.87
2018-04-16T01:23:23.439Z,9.80
2018-04-16T01:25:56.622Z,16.00
2018-04-16T01:28:30.763Z,12.40
2018-04-16T01:31:04.737Z,8.90
2018-04-16T01:33:38.595Z,12.50
2018-04-16T01:36:11.837Z,8.60
2018-04-16T01:38:45.195Z,6.60
2018-04-16T01:41:18.347Z,11.03
2018-04-16T01:43:52.360Z,7.27
2018-04-16T01:46:26.225Z,8.87
2018-04-16T01:49:09.448Z,8.43
2018-04-16T01:51:42.619Z,11.43
2018-04-16T01:57:00.943Z,11.37
2018-04-16T01:59:34.525Z,7.53
2018-04-16T02:02:08.545Z,11.27
2018-04-16T02:04:42.472Z,8.10
2018-04-16T02:07:15.992Z,8.93
2018-04-16T02:09:49.509Z,12.40
2018-04-16T02:12:22.545Z,11.93
2018-04-16T02:14:55.865Z,11.70
2018-04-16T02:17:29.444Z,11.50
2018-04-16T02:20:02.649Z,9.87
2018-04-16T02:22:35.648Z,14.40
2018-04-16T02:25:08.719Z,16.00
2018-04-16T02:27:41.764Z,12.73
2018-04-16T02:30:14.814Z,16.03
2018-04-16T02:33:02.864Z,12.10
2018-04-16T02:35:36.838Z,11.17
2018-04-16T02:38:10.050Z,8.20
2018-04-16T02:40:43.157Z,8.13
2018-04-16T02:43:16.340Z,4.50
2018-04-16T02:45:49.436Z,2.40
2018-04-16T02:48:22.525Z,2.47
2018-04-16T02:50:56.499Z,2.83
2018-04-16T02:53:30.310Z,2.53
2018-04-16T02:56:03.489Z,1.80
2018-04-16T02:58:36.689Z,2.30
2018-04-16T03:01:09.712Z,4.07
2018-04-16T03:03:42.817Z,10.10
2018-04-16T03:06:16.319Z,2.63
2018-04-16T03:08:49.359Z,1.20
2018-04-16T03:14:37.192Z,1.93
2018-04-16T03:17:10.387Z,1.40
2018-04-16T03:19:44.293Z,2.60
2018-04-16T03:22:17.510Z,2.00
2018-04-16T03:24:50.650Z,0.87
2018-04-16T03:27:24.455Z,1.50
2018-04-16T03:29:57.685Z,0.60
2018-04-16T03:32:30.821Z,0.60
2018-04-16T03:35:03.930Z,0.70
2018-04-16T03:37:37.200Z,0.60
2018-04-16T03:40:10.402Z,1.07
2018-04-16T03:42:43.426Z,0.90
2018-04-16T03:45:16.593Z,0.90
2018-04-16T03:47:50.174Z,0.60
2018-04-16T03:50:23.281Z,0.60
2018-04-16T03:52:56.441Z,1.17
2018-04-16T03:55:28.421Z,0.90
2018-04-16T03:57:55.862Z,0.67
2018-04-16T04:00:23.296Z,0.60
2018-04-16T04:02:50.742Z,0.60
2018-04-16T04:05:18.228Z,0.60
2018-04-16T04:07:45.684Z,0.60
2018-04-16T04:10:13.143Z,0.70
2018-04-16T04:12:41.010Z,0.63
2018-04-16T04:15:08.470Z,1.00
2018-04-16T04:17:35.935Z,0.90
2018-04-16T04:20:03.399Z,0.60
2018-04-16T04:22:43.345Z,1.23
2018-04-16T04:25:23.263Z,0.87
2018-04-16T04:28:02.301Z,0.70
2018-04-16T04:30:38.170Z,0.67
2018-04-16T04:33:06.006Z,0.83
2018-04-16T04:35:33.844Z,2.40
2018-04-16T04:38:02.088Z,0.70
2018-04-16T04:40:29.597Z,1.13
2018-04-16T04:42:57.839Z,0.67
2018-04-16T04:45:25.438Z,0.70
2018-04-16T04:47:54.533Z,0.63
2018-04-16T04:50:21.986Z,1.30
2018-04-16T04:52:49.418Z,1.27
2018-04-16T04:55:16.876Z,1.27
2018-04-16T04:57:44.327Z,0.87
2018-04-16T05:00:12.521Z,0.80
2018-04-16T05:02:40.755Z,0.83
2018-04-16T05:05:08.444Z,1.00
2018-04-16T05:07:35.873Z,0.90
2018-04-16T05:10:03.352Z,1.37
2018-04-16T05:12:30.797Z,0.60
2018-04-16T05:14:58.238Z,0.83
2018-04-16T05:17:26.438Z,0.70
2018-04-16T05:19:54.672Z,0.93
2018-04-16T05:22:22.857Z,0.90
2018-04-16T05:24:50.536Z,1.30
2018-04-16T05:27:17.961Z,0.70
2018-04-16T05:29:45.409Z,0.70
2018-04-16T05:32:13.617Z,1.67
2018-04-16T05:34:41.474Z,0.70
2018-04-16T05:37:09.685Z,0.70
2018-04-16T05:39:37.169Z,0.60
2018-04-16T05:42:04.610Z,0.83
2018-04-16T05:44:32.832Z,0.70
2018-04-16T05:47:00.681Z,1.10
2018-04-16T05:49:28.912Z,0.87
2018-04-16T05:51:56.368Z,1.23
2018-04-16T05:54:23.825Z,1.30
2018-04-16T05:56:51.282Z,0.73
2018-04-16T05:59:18.717Z,1.43
2018-04-16T06:01:46.924Z,0.70
2018-04-16T06:04:14.369Z,1.37
2018-04-16T06:06:42.589Z,0.67
2018-04-16T06:09:10.780Z,1.40
2018-04-16T06:11:38.442Z,1.10
2018-04-16T06:14:06.265Z,0.80
2018-04-16T06:16:33.711Z,1.17
2018-04-16T06:19:01.149Z,0.90
2018-04-16T06:21:28.618Z,2.80
2018-04-16T06:23:56.494Z,3.03
2018-04-16T06:26:24.359Z,0.83
2018-04-16T06:28:52.578Z,0.70
2018-04-16T06:31:20.038Z,1.57
2018-04-16T06:33:47.556Z,1.67
2018-04-16T06:36:15.805Z,1.40
2018-04-16T06:38:43.281Z,0.70
2018-04-16T06:41:10.754Z,2.60
2018-04-16T06:43:39.217Z,1.27
2018-04-16T06:46:07.447Z,0.70
2018-04-16T06:48:35.315Z,0.90
2018-04-16T06:51:03.159Z,1.30
2018-04-16T06:53:30.615Z,1.40
2018-04-16T06:55:58.102Z,0.70
2018-04-16T06:58:25.562Z,1.20
2018-04-16T07:00:53.015Z,8.40
2018-04-16T07:03:21.237Z,1.90
2018-04-16T07:05:48.723Z,2.90
2018-04-16T07:08:16.171Z,1.17
2018-04-16T07:10:44.394Z,1.43
2018-04-16T07:13:12.217Z,1.30
2018-04-16T07:15:39.833Z,1.13
2018-04-16T07:18:07.234Z,1.07
2018-04-16T07:20:34.695Z,1.03
2018-04-16T07:23:02.171Z,1.20
2018-04-16T07:25:30.021Z,0.70
2018-04-16T07:27:57.487Z,0.70
2018-04-16T07:30:24.963Z,2.10
2018-04-16T07:32:53.195Z,1.07
2018-04-16T07:35:20.658Z,1.93
2018-04-16T07:37:48.152Z,1.33
2018-04-16T07:40:15.617Z,0.70
2018-04-16T07:42:43.047Z,0.90
2018-04-16T07:45:10.509Z,0.80
2018-04-16T07:47:37.950Z,1.47
2018-04-16T07:50:06.168Z,1.77
2018-04-16T07:52:33.617Z,1.00
2018-04-16T07:55:01.834Z,1.30
2018-04-16T07:57:29.285Z,1.50
2018-04-16T07:59:56.746Z,1.30
2018-04-16T08:02:24.198Z,1.30
2018-04-16T08:04:52.421Z,1.97
2018-04-16T08:07:19.869Z,1.27
2018-04-16T08:09:47.316Z,0.80
2018-04-16T08:12:14.771Z,0.80
2018-04-16T08:14:42.254Z,1.63
2018-04-16T08:17:10.484Z,1.10
2018-04-16T08:19:37.939Z,1.10
2018-04-16T08:22:05.380Z,1.37
2018-04-16T08:24:32.820Z,0.80
2018-04-16T08:27:00.277Z,1.13
2018-04-16T08:29:27.734Z,0.87
2018-04-16T08:31:55.175Z,0.70
2018-04-16T08:34:22.638Z,1.87
2018-04-16T08:36:50.177Z,2.20
2018-04-16T08:39:18.357Z,1.10
2018-04-16T08:41:45.798Z,1.00
2018-04-16T08:44:13.278Z,1.70
2018-04-16T08:46:40.728Z,1.03
2018-04-16T08:49:08.562Z,1.00
2018-04-16T08:51:36.002Z,0.90
2018-04-16T08:54:03.457Z,1.50
2018-04-16T08:56:30.908Z,1.60
2018-04-16T08:58:58.376Z,3.90
2018-04-16T09:01:25.807Z,0.97
2018-04-16T09:03:54.024Z,0.80
2018-04-16T09:06:21.487Z,1.20
2018-04-16T09:08:49.346Z,2.00
2018-04-16T09:11:16.786Z,0.80
2018-04-16T09:13:44.238Z,0.70
2018-04-16T09:16:11.706Z,1.63
2018-04-16T09:18:39.199Z,1.20
2018-04-16T09:21:07.410Z,2.27
2018-04-16T09:23:34.888Z,0.80
2018-04-16T09:26:02.345Z,1.30
2018-04-16T09:28:30.591Z,0.80
2018-04-16T09:30:58.049Z,0.70
2018-04-16T09:33:25.516Z,0.80
2018-04-16T09:35:52.971Z,1.53
2018-04-16T09:38:20.425Z,0.80
2018-04-16T09:40:48.283Z,1.00
2018-04-16T09:43:15.773Z,0.80
2018-04-16T09:45:43.225Z,0.70
2018-04-16T09:48:11.441Z,0.83
2018-04-16T09:50:38.904Z,0.80
2018-04-16T09:53:06.346Z,2.33
2018-04-16T09:55:34.189Z,0.70
2018-04-16T09:58:01.629Z,0.77
2018-04-16T10:00:29.935Z,2.27
2018-04-16T10:02:58.284Z,1.07
2018-04-16T10:05:38.881Z,1.63
2018-04-16T10:08:06.330Z,1.40
2018-04-16T10:10:33.838Z,1.30
2018-04-16T10:13:01.303Z,1.00
2018-04-16T10:15:28.809Z,1.13
2018-04-16T10:17:57.072Z,1.83
2018-04-16T10:20:24.623Z,1.43
2018-04-16T10:22:52.082Z,0.90
2018-04-16T10:25:19.531Z,1.17
2018-04-16T10:27:46.989Z,0.90
2018-04-16T10:30:14.433Z,2.40
2018-04-16T10:32:41.925Z,2.73
2018-04-16T10:35:09.365Z,1.67
2018-04-16T10:37:36.812Z,1.00
2018-04-16T10:40:05.025Z,1.20
2018-04-16T10:42:32.474Z,1.13
2018-04-16T10:45:00.670Z,1.83
2018-04-16T10:47:28.150Z,0.80
2018-04-16T10:49:55.805Z,1.53
2018-04-16T10:52:23.270Z,1.53
2018-04-16T10:54:50.719Z,1.27
2018-04-16T11:00:00.690Z,3.63
2018-04-16T11:02:28.161Z,1.07
2018-04-16T11:04:55.682Z,2.30
2018-04-16T11:07:23.161Z,1.03
2018-04-16T11:09:50.595Z,1.40
2018-04-16T11:12:18.805Z,0.93
2018-04-16T11:14:46.278Z,0.80
2018-04-16T11:17:14.708Z,2.10
2018-04-16T11:19:42.197Z,0.90
2018-04-16T11:22:09.641Z,1.10
2018-04-16T11:24:37.113Z,1.03
2018-04-16T11:27:05.362Z,0.80
2018-04-16T11:29:32.969Z,1.53
2018-04-16T11:32:05.810Z,6.40
2018-04-16T11:34:33.330Z,1.60
2018-04-16T11:37:00.770Z,2.73
2018-04-16T11:39:28.337Z,1.50
2018-04-16T11:41:55.805Z,1.60
2018-04-16T11:44:23.254Z,2.93
2018-04-16T11:46:51.479Z,3.13
2018-04-16T11:49:18.962Z,2.07
2018-04-16T11:51:46.450Z,3.67
2018-04-16T11:54:13.901Z,1.83
2018-04-16T11:56:41.734Z,1.80
2018-04-16T11:59:09.250Z,1.47
2018-04-16T12:01:36.746Z,1.40
2018-04-16T12:04:04.989Z,1.13
2018-04-16T12:06:32.442Z,1.50
2018-04-16T12:08:59.888Z,2.00
2018-04-16T12:11:28.486Z,1.80
2018-04-16T12:13:55.974Z,1.77
2018-04-16T12:16:23.428Z,1.73
2018-04-16T12:18:50.877Z,2.03
2018-04-16T12:21:19.075Z,1.13
2018-04-16T12:23:46.529Z,1.53
2018-04-16T12:26:14.745Z,0.93
2018-04-16T12:28:42.593Z,1.73
2018-04-16T12:31:11.567Z,1.40
2018-04-16T12:33:39.017Z,1.10
2018-04-16T12:36:06.479Z,1.30
2018-04-16T12:38:33.934Z,1.00
2018-04-16T12:41:01.373Z,1.33
2018-04-16T12:43:29.587Z,0.80
2018-04-16T12:45:57.045Z,0.80
2018-04-16T12:48:24.484Z,1.40
2018-04-16T12:50:51.929Z,1.23
2018-04-16T12:53:19.365Z,0.77
2018-04-16T12:55:47.206Z,1.00
2018-04-16T12:58:15.409Z,1.20
2018-04-16T13:00:42.863Z,0.93
2018-04-16T13:03:11.062Z,0.87
2018-04-16T13:05:38.516Z,0.90
2018-04-16T13:08:06.734Z,1.03
2018-04-16T13:10:34.182Z,1.57
2018-04-16T13:13:01.630Z,1.10
2018-04-16T13:15:29.862Z,1.57
2018-04-16T13:17:57.318Z,0.80
2018-04-16T13:20:25.578Z,0.80
2018-04-16T13:22:53.838Z,2.70
2018-04-16T13:25:21.285Z,2.00
2018-04-16T13:27:48.721Z,0.83
2018-04-16T13:30:16.185Z,0.80
2018-04-16T13:32:44.413Z,1.00
2018-04-16T13:35:11.858Z,0.80
2018-04-16T13:37:40.062Z,0.80
2018-04-16T13:40:07.549Z,0.70
2018-04-16T13:42:35.000Z,0.80
2018-04-16T13:45:02.449Z,1.20
2018-04-16T13:47:29.892Z,0.80
2018-04-16T13:49:57.346Z,0.90
2018-04-16T13:52:25.561Z,0.90
2018-04-16T13:54:53.016Z,2.93
2018-04-16T13:57:20.474Z,1.30
2018-04-16T13:59:47.914Z,1.10
2018-04-16T14:02:16.491Z,1.33
2018-04-16T14:04:44.697Z,0.97
2018-04-16T14:07:13.276Z,1.03
2018-04-16T14:09:40.728Z,0.70
2018-04-16T14:12:08.169Z,1.43
2018-04-16T14:14:35.638Z,0.90
2018-04-16T14:17:03.078Z,1.47
2018-04-16T14:19:30.522Z,2.70
2018-04-16T14:21:57.987Z,0.80
2018-04-16T14:24:25.469Z,1.27
2018-04-16T14:26:52.885Z,0.83
2018-04-16T14:29:20.337Z,2.20
2018-04-16T14:31:47.801Z,0.70
2018-04-16T14:34:15.252Z,2.40
2018-04-16T14:36:43.465Z,0.80
2018-04-16T14:39:10.933Z,0.90
2018-04-16T14:41:38.378Z,0.80
2018-04-16T14:44:05.816Z,2.83
2018-04-16T14:46:34.057Z,0.83
2018-04-16T14:49:01.507Z,0.80
2018-04-16T14:51:29.369Z,0.70
2018-04-16T14:53:57.197Z,1.47
2018-04-16T14:56:24.680Z,1.90
2018-04-16T14:58:52.117Z,0.80
2018-04-16T15:01:19.572Z,0.90
2018-04-16T15:03:46.990Z,3.33
2018-04-16T15:06:14.852Z,0.70
2018-04-16T15:08:42.352Z,0.90
2018-04-16T15:11:09.799Z,0.80
2018-04-16T15:13:37.244Z,3.33
2018-04-16T15:16:05.130Z,0.70
2018-04-16T15:18:32.649Z,1.67
2018-04-16T15:21:01.599Z,1.07
2018-04-16T15:23:29.057Z,0.80
2018-04-16T15:25:56.509Z,0.70
2018-04-16T15:28:24.729Z,1.00
2018-04-16T15:30:52.189Z,1.27
2018-04-16T15:33:19.636Z,4.77
2018-04-16T15:35:47.116Z,0.83
2018-04-16T15:38:14.959Z,10.70
2018-04-16T15:40:43.173Z,0.70
2018-04-16T15:43:11.014Z,0.70
2018-04-16T15:45:39.257Z,0.70
2018-04-16T15:48:07.085Z,1.93
2018-04-16T15:50:36.036Z,0.70
2018-04-16T15:53:03.893Z,0.70
2018-04-16T15:55:31.373Z,0.80
2018-04-16T15:58:00.321Z,0.80
2018-04-16T16:00:28.205Z,1.27
2018-04-16T16:02:55.691Z,0.80
2018-04-16T16:05:23.198Z,5.03
2018-04-16T16:07:50.645Z,0.90
2018-04-16T16:10:18.091Z,0.80
2018-04-16T16:12:46.315Z,0.90
2018-04-16T16:15:15.127Z,0.77
2018-04-16T16:17:43.900Z,1.13
2018-04-16T16:20:11.336Z,0.70
2018-04-16T16:22:38.785Z,0.80
2018-04-16T16:25:07.601Z,0.73
2018-04-16T16:27:35.077Z,0.93
2018-04-16T16:30:02.561Z,0.80
2018-04-16T16:32:30.786Z,0.70
2018-04-16T16:34:58.658Z,1.00
2018-04-16T16:37:26.093Z,0.93
2018-04-16T16:39:54.311Z,1.13
2018-04-16T16:42:21.747Z,0.70
2018-04-16T16:44:49.182Z,0.80
2018-04-16T16:47:17.406Z,1.10
2018-04-16T16:49:45.248Z,0.80
2018-04-16T16:52:14.209Z,0.87
2018-04-16T16:54:41.685Z,0.80
2018-04-16T16:57:09.147Z,0.80
2018-04-16T16:59:37.362Z,1.20
2018-04-16T17:02:05.579Z,0.80
2018-04-16T17:04:33.025Z,0.77
2018-04-16T17:07:01.236Z,0.80
2018-04-16T17:09:29.436Z,0.77
2018-04-16T17:11:56.884Z,3.10
2018-04-16T17:14:24.336Z,1.10
2018-04-16T17:16:52.560Z,0.70
2018-04-16T17:19:20.003Z,3.43
2018-04-16T17:21:47.449Z,1.10
2018-04-16T17:24:15.668Z,1.07
2018-04-16T17:26:43.879Z,1.23
2018-04-16T17:29:11.317Z,0.97
2018-04-16T17:31:38.805Z,0.70
2018-04-16T17:34:07.011Z,3.23
2018-04-16T17:36:34.462Z,0.90
2018-04-16T17:39:01.906Z,3.87
2018-04-16T17:41:29.349Z,1.87
2018-04-16T17:43:57.922Z,4.20
2018-04-16T17:46:25.764Z,1.33
2018-04-16T17:48:53.209Z,0.90
2018-04-16T17:51:20.649Z,0.87
2018-04-16T17:53:48.849Z,0.80
2018-04-16T17:56:16.313Z,1.20
2018-04-16T17:58:44.514Z,1.67
2018-04-16T18:01:12.018Z,0.80
2018-04-16T18:03:39.478Z,0.70
2018-04-16T18:06:06.922Z,0.80
2018-04-16T18:08:35.130Z,0.80
2018-04-16T18:11:02.633Z,0.80
2018-04-16T18:13:30.107Z,0.70
2018-04-16T18:15:57.573Z,0.80
2018-04-16T18:18:25.022Z,1.20
2018-04-16T18:20:52.488Z,1.27
2018-04-16T18:23:19.935Z,1.47
2018-04-16T18:25:47.369Z,0.90
2018-04-16T18:28:15.933Z,0.80
2018-04-16T18:30:43.370Z,1.67
2018-04-16T18:33:11.663Z,0.70
2018-04-16T18:35:39.113Z,9.07
2018-04-16T18:38:06.574Z,0.80
2018-04-16T18:40:34.017Z,0.70
2018-04-16T18:43:02.232Z,0.70
2018-04-16T18:45:29.673Z,1.00
2018-04-16T18:47:57.114Z,0.90
2018-04-16T18:50:24.556Z,0.80
2018-04-16T18:52:52.009Z,3.70
2018-04-16T18:55:19.895Z,4.50
2018-04-16T18:57:47.336Z,1.20
2018-04-16T19:00:14.788Z,8.90
2018-04-16T19:02:42.236Z,5.73
2018-04-16T19:05:09.689Z,1.50
2018-04-16T19:07:37.935Z,6.50
2018-04-16T19:10:05.383Z,1.67
2018-04-16T19:12:32.813Z,1.30
2018-04-16T19:15:00.272Z,0.90
2018-04-16T19:17:27.729Z,1.67
2018-04-16T19:19:55.173Z,2.03
2018-04-16T19:22:22.616Z,1.67
2018-04-16T19:24:50.825Z,1.57
2018-04-16T19:27:26.191Z,2.20
2018-04-16T19:29:53.641Z,1.10
2018-04-16T19:32:21.109Z,4.20
2018-04-16T19:34:54.299Z,2.57
2018-04-16T19:37:21.763Z,3.93
2018-04-16T19:39:50.804Z,3.43
2018-04-16T19:42:23.921Z,1.30
2018-04-16T19:44:51.366Z,1.90
2018-04-16T19:47:19.630Z,4.03
2018-04-16T19:49:53.395Z,4.73
2018-04-16T19:52:20.858Z,2.03
2018-04-16T19:54:48.319Z,1.47
2018-04-16T19:57:21.718Z,2.60
2018-04-16T19:59:49.187Z,3.83
2018-04-16T20:02:22.214Z,1.90
2018-04-16T20:04:50.045Z,1.40
2018-04-16T20:07:19.019Z,3.37
2018-04-16T20:09:47.217Z,1.13
2018-04-16T20:12:16.173Z,1.20
2018-04-16T20:14:43.632Z,1.57
2018-04-16T20:17:11.482Z,8.50
2018-04-16T20:19:38.967Z,1.57
2018-04-16T20:22:06.429Z,2.77
2018-04-16T20:24:33.883Z,2.73
2018-04-16T20:27:01.323Z,2.93
2018-04-16T20:29:30.112Z,1.57
2018-04-16T20:31:57.605Z,8.13
2018-04-16T20:34:25.043Z,2.10
2018-04-16T20:36:53.620Z,1.47
2018-04-16T20:39:21.055Z,4.10
2018-04-16T20:41:49.276Z,1.90
2018-04-16T20:44:16.713Z,11.13
2018-04-16T20:46:44.213Z,4.00
2018-04-16T20:49:11.668Z,8.30
2018-04-16T20:51:39.125Z,6.10
2018-04-16T20:54:06.571Z,3.70
2018-04-16T20:56:34.023Z,3.27
2018-04-16T20:59:02.224Z,5.37
2018-04-16T21:01:30.057Z,8.47
2018-04-16T21:03:57.505Z,2.83
2018-04-16T21:06:24.977Z,7.73
2018-04-16T21:08:52.848Z,7.33
2018-04-16T21:11:20.699Z,12.20
2018-04-16T21:13:48.130Z,3.57
2018-04-16T21:16:15.575Z,8.37
2018-04-16T21:18:43.025Z,11.87
2018-04-16T21:21:10.457Z,5.97
2018-04-16T21:23:37.893Z,13.00
2018-04-16T21:26:05.751Z,7.23
2018-04-16T21:28:33.576Z,8.93
2018-04-16T21:31:01.034Z,5.70
2018-04-16T21:33:29.256Z,9.63
2018-04-16T21:35:58.038Z,8.73
2018-04-16T21:38:25.492Z,4.33
2018-04-16T21:40:54.134Z,7.23
2018-04-16T21:43:22.866Z,6.50
2018-04-16T21:45:50.324Z,7.23
2018-04-16T21:48:17.785Z,12.50
2018-04-16T21:50:46.587Z,9.70
2018-04-16T21:53:14.009Z,4.90
2018-04-16T21:55:41.457Z,4.97
2018-04-16T21:58:08.888Z,8.60
2018-04-16T22:00:36.359Z,4.80
2018-04-16T22:03:04.189Z,8.10
2018-04-16T22:05:31.625Z,18.07
2018-04-16T22:08:00.400Z,3.93
2018-04-16T22:10:27.889Z,9.03
2018-04-16T22:12:55.297Z,7.50
2018-04-16T22:15:23.507Z,13.73
2018-04-16T22:17:50.956Z,16.50
2018-04-16T22:20:18.397Z,9.90
2018-04-16T22:22:45.824Z,16.83
2018-04-16T22:25:13.261Z,7.27
2018-04-16T22:27:40.687Z,9.67
2018-04-16T22:30:09.270Z,22.43
2018-04-16T22:32:38.048Z,6.33
2018-04-16T22:35:05.524Z,5.13
2018-04-16T22:37:33.348Z,12.03
2018-04-16T22:40:00.804Z,12.33
2018-04-16T22:42:28.231Z,22.43
2018-04-16T22:44:55.678Z,13.13
2018-04-16T22:47:23.111Z,7.53
2018-04-16T22:49:50.556Z,7.80
2018-04-16T22:52:18.752Z,7.47
2018-04-16T22:54:47.325Z,13.43
2018-04-16T22:57:14.769Z,14.57
2018-04-16T22:59:42.991Z,10.37
2018-04-16T23:02:11.189Z,6.13
2018-04-16T23:04:39.025Z,7.03
2018-04-16T23:07:06.465Z,20.93
2018-04-16T23:09:33.936Z,9.97
2018-04-16T23:12:01.353Z,5.10
2018-04-16T23:14:30.294Z,8.97
2018-04-16T23:16:58.121Z,7.13
2018-04-16T23:19:25.551Z,5.07
2018-04-16T23:21:52.985Z,9.53
2018-04-16T23:24:20.421Z,13.33
2018-04-16T23:26:48.267Z,16.87
2018-04-16T23:29:15.693Z,4.90
2018-04-16T23:31:44.265Z,8.83
2018-04-16T23:34:11.701Z,31.90
2018-04-16T23:36:39.901Z,19.27
2018-04-16T23:39:07.355Z,15.50
2018-04-16T23:41:35.545Z,8.03
2018-04-16T23:44:02.983Z,5.37
2018-04-16T23:46:30.420Z,11.70
2018-04-16T23:48:58.632Z,15.47
2018-04-16T23:51:27.204Z,13.40
2018-04-16T23:53:55.406Z,6.47
2018-04-16T23:56:22.841Z,15.77
2018-04-16T23:58:50.668Z,6.33
